sensor_id;sensor_type;location;lat;lon;timestamp;temperature;humidity
2465;DHT22;1244;54.326;10.074;2022-11-14T00:01:30;9.10;99.90
2465;DHT22;1244;54.326;10.074;2022-11-14T00:03:56;9.10;99.90
2465;DHT22;1244;54.326;10.074;2022-11-14T00:06:22;9.10;99.90
2465;DHT22;1244;54.326;10.074;2022-11-14T00:08:47;9.00;99.90
2465;DHT22;1244;54.326;10.074;2022-11-14T00:11:13;9.00;99.90
2465;DHT22;1244;54.326;10.074;2022-11-14T00:13:38;9.00;99.90
2465;DHT22;1244;54.326;10.074;2022-11-14T00:16:04;9.00;99.90
2465;DHT22;1244;54.326;10.074;2022-11-14T00:18:29;9.00;99.90
2465;DHT22;1244;54.326;10.074;2022-11-14T00:20:55;9.00;99.90
2465;DHT22;1244;54.326;10.074;2022-11-14T00:23:20;8.90;99.90
2465;DHT22;1244;54.326;10.074;2022-11-14T00:25:46;8.90;99.90
2465;DHT22;1244;54.326;10.074;2022-11-14T00:28:12;8.90;99.90
2465;DHT22;1244;54.326;10.074;2022-11-14T00:30:37;8.80;99.90
2465;DHT22;1244;54.326;10.074;2022-11-14T00:33:03;8.80;99.90
2465;DHT22;1244;54.326;10.074;2022-11-14T00:35:28;8.80;99.90
2465;DHT22;1244;54.326;10.074;2022-11-14T00:37:54;8.80;99.90
2465;DHT22;1244;54.326;10.074;2022-11-14T00:40:19;8.70;99.90
2465;DHT22;1244;54.326;10.074;2022-11-14T00:42:45;8.70;99.90
2465;DHT22;1244;54.326;10.074;2022-11-14T00:45:10;8.60;99.90
2465;DHT22;1244;54.326;10.074;2022-11-14T00:47:36;8.50;99.90
2465;DHT22;1244;54.326;10.074;2022-11-14T00:50:02;8.50;99.90
2465;DHT22;1244;54.326;10.074;2022-11-14T00:52:28;8.40;99.90
2465;DHT22;1244;54.326;10.074;2022-11-14T00:54:53;8.30;99.90
2465;DHT22;1244;54.326;10.074;2022-11-14T00:57:19;8.30;99.90
2465;DHT22;1244;54.326;10.074;2022-11-14T00:59:44;8.30;99.90
2465;DHT22;1244;54.326;10.074;2022-11-14T01:02:16;8.20;99.90
2465;DHT22;1244;54.326;10.074;2022-11-14T01:04:41;8.20;99.90
2465;DHT22;1244;54.326;10.074;2022-11-14T01:07:07;8.20;99.90
2465;DHT22;1244;54.326;10.074;2022-11-14T01:09:32;8.20;99.90
2465;DHT22;1244;54.326;10.074;2022-11-14T01:11:58;8.20;99.90
2465;DHT22;1244;54.326;10.074;2022-11-14T01:14:23;8.20;99.90
2465;DHT22;1244;54.326;10.074;2022-11-14T01:16:49;8.30;99.90
2465;DHT22;1244;54.326;10.074;2022-11-14T01:19:14;8.30;99.90
2465;DHT22;1244;54.326;10.074;2022-11-14T01:21:40;8.30;99.90
2465;DHT22;1244;54.326;10.074;2022-11-14T01:24:06;8.30;99.90
2465;DHT22;1244;54.326;10.074;2022-11-14T01:26:31;8.30;99.90
2465;DHT22;1244;54.326;10.074;2022-11-14T01:28:57;8.30;99.90
2465;DHT22;1244;54.326;10.074;2022-11-14T01:31:23;8.20;99.90
2465;DHT22;1244;54.326;10.074;2022-11-14T01:33:51;8.20;99.90
2465;DHT22;1244;54.326;10.074;2022-11-14T01:36:17;8.20;99.90
2465;DHT22;1244;54.326;10.074;2022-11-14T01:38:43;8.20;99.90
2465;DHT22;1244;54.326;10.074;2022-11-14T01:41:12;8.10;99.90
2465;DHT22;1244;54.326;10.074;2022-11-14T01:43:38;8.00;99.90
2465;DHT22;1244;54.326;10.074;2022-11-14T01:46:23;8.00;99.90
2465;DHT22;1244;54.326;10.074;2022-11-14T01:48:57;8.10;99.90
2465;DHT22;1244;54.326;10.074;2022-11-14T01:54:12;8.10;99.90
2465;DHT22;1244;54.326;10.074;2022-11-14T01:56:43;8.20;99.90
2465;DHT22;1244;54.326;10.074;2022-11-14T01:59:13;8.20;99.90
2465;DHT22;1244;54.326;10.074;2022-11-14T02:01:47;8.20;99.90
2465;DHT22;1244;54.326;10.074;2022-11-14T02:04:26;8.30;99.90
2465;DHT22;1244;54.326;10.074;2022-11-14T02:06:56;8.30;99.90
2465;DHT22;1244;54.326;10.074;2022-11-14T02:09:22;8.30;99.90
2465;DHT22;1244;54.326;10.074;2022-11-14T02:11:48;8.30;99.90
2465;DHT22;1244;54.326;10.074;2022-11-14T02:14:14;8.30;99.90
2465;DHT22;1244;54.326;10.074;2022-11-14T02:16:40;8.30;99.90
2465;DHT22;1244;54.326;10.074;2022-11-14T02:19:07;8.30;99.90
2465;DHT22;1244;54.326;10.074;2022-11-14T02:21:33;8.30;99.90
2465;DHT22;1244;54.326;10.074;2022-11-14T02:23:59;8.30;99.90
2465;DHT22;1244;54.326;10.074;2022-11-14T02:26:25;8.30;99.90
2465;DHT22;1244;54.326;10.074;2022-11-14T02:28:51;8.30;99.90
2465;DHT22;1244;54.326;10.074;2022-11-14T02:31:17;8.40;99.90
2465;DHT22;1244;54.326;10.074;2022-11-14T02:33:42;8.30;99.90
2465;DHT22;1244;54.326;10.074;2022-11-14T02:36:08;8.30;99.90
2465;DHT22;1244;54.326;10.074;2022-11-14T02:38:34;8.30;99.90
2465;DHT22;1244;54.326;10.074;2022-11-14T02:41:00;8.30;99.90
2465;DHT22;1244;54.326;10.074;2022-11-14T02:43:26;8.30;99.90
2465;DHT22;1244;54.326;10.074;2022-11-14T02:45:51;8.30;99.90
2465;DHT22;1244;54.326;10.074;2022-11-14T02:48:17;8.30;99.90
2465;DHT22;1244;54.326;10.074;2022-11-14T02:50:43;8.30;99.90
2465;DHT22;1244;54.326;10.074;2022-11-14T02:53:08;8.30;99.90
2465;DHT22;1244;54.326;10.074;2022-11-14T02:55:34;8.30;99.90
2465;DHT22;1244;54.326;10.074;2022-11-14T02:58:00;8.30;99.90
2465;DHT22;1244;54.326;10.074;2022-11-14T03:00:25;8.20;99.90
2465;DHT22;1244;54.326;10.074;2022-11-14T03:02:54;8.20;99.90
2465;DHT22;1244;54.326;10.074;2022-11-14T03:05:19;8.20;99.90
2465;DHT22;1244;54.326;10.074;2022-11-14T03:07:45;8.30;99.90
2465;DHT22;1244;54.326;10.074;2022-11-14T03:10:11;8.30;99.90
2465;DHT22;1244;54.326;10.074;2022-11-14T03:12:38;8.20;99.90
2465;DHT22;1244;54.326;10.074;2022-11-14T03:15:07;8.20;99.90
2465;DHT22;1244;54.326;10.074;2022-11-14T03:17:33;8.20;99.90
2465;DHT22;1244;54.326;10.074;2022-11-14T03:19:59;8.20;99.90
2465;DHT22;1244;54.326;10.074;2022-11-14T03:22:25;8.20;99.90
2465;DHT22;1244;54.326;10.074;2022-11-14T03:24:51;8.20;99.90
2465;DHT22;1244;54.326;10.074;2022-11-14T03:27:17;8.20;99.90
2465;DHT22;1244;54.326;10.074;2022-11-14T03:29:42;8.20;99.90
2465;DHT22;1244;54.326;10.074;2022-11-14T03:32:08;8.20;99.90
2465;DHT22;1244;54.326;10.074;2022-11-14T03:34:33;8.20;99.90
2465;DHT22;1244;54.326;10.074;2022-11-14T03:36:59;8.20;99.90
2465;DHT22;1244;54.326;10.074;2022-11-14T03:39:25;8.20;99.90
2465;DHT22;1244;54.326;10.074;2022-11-14T03:41:51;8.20;99.90
2465;DHT22;1244;54.326;10.074;2022-11-14T03:44:17;8.20;99.90
2465;DHT22;1244;54.326;10.074;2022-11-14T03:46:42;8.20;99.90
2465;DHT22;1244;54.326;10.074;2022-11-14T03:49:08;8.20;99.90
2465;DHT22;1244;54.326;10.074;2022-11-14T03:51:33;8.20;99.90
2465;DHT22;1244;54.326;10.074;2022-11-14T03:53:59;8.30;99.90
2465;DHT22;1244;54.326;10.074;2022-11-14T03:56:24;8.20;99.90
2465;DHT22;1244;54.326;10.074;2022-11-14T03:58:50;8.20;99.90
2465;DHT22;1244;54.326;10.074;2022-11-14T04:01:15;8.20;99.90
2465;DHT22;1244;54.326;10.074;2022-11-14T04:03:41;8.20;99.90
2465;DHT22;1244;54.326;10.074;2022-11-14T04:06:06;8.20;99.90
2465;DHT22;1244;54.326;10.074;2022-11-14T04:08:32;8.20;99.90
2465;DHT22;1244;54.326;10.074;2022-11-14T04:10:57;8.10;99.90
2465;DHT22;1244;54.326;10.074;2022-11-14T04:13:23;8.10;99.90
2465;DHT22;1244;54.326;10.074;2022-11-14T04:15:55;8.10;99.90
2465;DHT22;1244;54.326;10.074;2022-11-14T04:18:22;8.10;99.90
2465;DHT22;1244;54.326;10.074;2022-11-14T04:20:47;8.10;99.90
2465;DHT22;1244;54.326;10.074;2022-11-14T04:23:13;8.00;99.90
2465;DHT22;1244;54.326;10.074;2022-11-14T04:25:38;8.00;99.90
2465;DHT22;1244;54.326;10.074;2022-11-14T04:28:04;8.10;99.90
2465;DHT22;1244;54.326;10.074;2022-11-14T04:30:29;8.10;99.90
2465;DHT22;1244;54.326;10.074;2022-11-14T04:32:55;8.10;99.90
2465;DHT22;1244;54.326;10.074;2022-11-14T04:35:20;8.00;99.90
2465;DHT22;1244;54.326;10.074;2022-11-14T04:37:46;8.00;99.90
2465;DHT22;1244;54.326;10.074;2022-11-14T04:40:11;8.00;99.90
2465;DHT22;1244;54.326;10.074;2022-11-14T04:42:37;8.00;99.90
2465;DHT22;1244;54.326;10.074;2022-11-14T04:45:03;8.00;99.90
2465;DHT22;1244;54.326;10.074;2022-11-14T04:47:28;8.00;99.90
2465;DHT22;1244;54.326;10.074;2022-11-14T04:49:54;8.00;99.90
2465;DHT22;1244;54.326;10.074;2022-11-14T04:52:19;8.00;99.90
2465;DHT22;1244;54.326;10.074;2022-11-14T04:54:45;8.00;99.90
2465;DHT22;1244;54.326;10.074;2022-11-14T04:57:10;8.00;99.90
2465;DHT22;1244;54.326;10.074;2022-11-14T04:59:36;8.00;99.90
2465;DHT22;1244;54.326;10.074;2022-11-14T05:02:01;8.00;99.90
2465;DHT22;1244;54.326;10.074;2022-11-14T05:04:27;8.00;99.90
2465;DHT22;1244;54.326;10.074;2022-11-14T05:06:52;8.00;99.90
2465;DHT22;1244;54.326;10.074;2022-11-14T05:09:18;8.00;99.90
2465;DHT22;1244;54.326;10.074;2022-11-14T05:11:43;7.90;99.90
2465;DHT22;1244;54.326;10.074;2022-11-14T05:14:09;7.90;99.90
2465;DHT22;1244;54.326;10.074;2022-11-14T05:16:34;7.90;99.90
2465;DHT22;1244;54.326;10.074;2022-11-14T05:19:00;7.90;99.90
2465;DHT22;1244;54.326;10.074;2022-11-14T05:21:25;7.90;99.90
2465;DHT22;1244;54.326;10.074;2022-11-14T05:23:51;7.90;99.90
2465;DHT22;1244;54.326;10.074;2022-11-14T05:26:17;8.00;99.90
2465;DHT22;1244;54.326;10.074;2022-11-14T05:28:43;7.90;99.90
2465;DHT22;1244;54.326;10.074;2022-11-14T05:31:11;7.90;99.90
2465;DHT22;1244;54.326;10.074;2022-11-14T05:33:38;8.00;99.90
2465;DHT22;1244;54.326;10.074;2022-11-14T05:36:04;7.90;99.90
2465;DHT22;1244;54.326;10.074;2022-11-14T05:38:30;7.90;99.90
2465;DHT22;1244;54.326;10.074;2022-11-14T05:40:55;7.90;99.90
2465;DHT22;1244;54.326;10.074;2022-11-14T05:43:21;7.90;99.90
2465;DHT22;1244;54.326;10.074;2022-11-14T05:45:46;7.90;99.90
2465;DHT22;1244;54.326;10.074;2022-11-14T05:48:12;7.90;99.90
2465;DHT22;1244;54.326;10.074;2022-11-14T05:50:37;7.90;99.90
2465;DHT22;1244;54.326;10.074;2022-11-14T05:53:03;7.90;99.90
2465;DHT22;1244;54.326;10.074;2022-11-14T05:55:28;7.90;99.90
2465;DHT22;1244;54.326;10.074;2022-11-14T05:57:57;7.90;99.90
2465;DHT22;1244;54.326;10.074;2022-11-14T06:00:23;7.90;99.90
2465;DHT22;1244;54.326;10.074;2022-11-14T06:02:53;7.90;99.90
2465;DHT22;1244;54.326;10.074;2022-11-14T06:05:23;7.90;99.90
2465;DHT22;1244;54.326;10.074;2022-11-14T06:07:57;7.90;99.90
2465;DHT22;1244;54.326;10.074;2022-11-14T06:10:23;8.00;99.90
2465;DHT22;1244;54.326;10.074;2022-11-14T06:12:49;7.90;99.90
2465;DHT22;1244;54.326;10.074;2022-11-14T06:15:14;7.90;99.90
2465;DHT22;1244;54.326;10.074;2022-11-14T06:17:40;7.90;99.90
2465;DHT22;1244;54.326;10.074;2022-11-14T06:20:06;7.90;99.90
2465;DHT22;1244;54.326;10.074;2022-11-14T06:22:32;7.90;99.90
2465;DHT22;1244;54.326;10.074;2022-11-14T06:24:58;7.90;99.90
2465;DHT22;1244;54.326;10.074;2022-11-14T06:27:24;7.90;99.90
2465;DHT22;1244;54.326;10.074;2022-11-14T06:29:49;7.90;99.90
2465;DHT22;1244;54.326;10.074;2022-11-14T06:32:14;7.80;99.90
2465;DHT22;1244;54.326;10.074;2022-11-14T06:34:40;7.90;99.90
2465;DHT22;1244;54.326;10.074;2022-11-14T06:37:05;7.90;99.90
2465;DHT22;1244;54.326;10.074;2022-11-14T06:39:31;7.80;99.90
2465;DHT22;1244;54.326;10.074;2022-11-14T06:41:56;7.80;99.90
2465;DHT22;1244;54.326;10.074;2022-11-14T06:44:22;7.80;99.90
2465;DHT22;1244;54.326;10.074;2022-11-14T06:46:48;7.80;99.90
2465;DHT22;1244;54.326;10.074;2022-11-14T06:49:13;7.80;99.90
2465;DHT22;1244;54.326;10.074;2022-11-14T06:51:39;7.80;99.90
2465;DHT22;1244;54.326;10.074;2022-11-14T06:54:04;7.80;99.90
2465;DHT22;1244;54.326;10.074;2022-11-14T06:56:30;7.80;99.90
2465;DHT22;1244;54.326;10.074;2022-11-14T06:58:55;7.80;99.90
2465;DHT22;1244;54.326;10.074;2022-11-14T07:01:23;7.80;99.90
2465;DHT22;1244;54.326;10.074;2022-11-14T07:03:50;7.80;99.90
2465;DHT22;1244;54.326;10.074;2022-11-14T07:06:23;7.80;99.90
2465;DHT22;1244;54.326;10.074;2022-11-14T07:08:48;7.80;99.90
2465;DHT22;1244;54.326;10.074;2022-11-14T07:11:16;7.80;99.90
2465;DHT22;1244;54.326;10.074;2022-11-14T07:13:55;7.80;99.90
2465;DHT22;1244;54.326;10.074;2022-11-14T07:16:26;7.80;99.90
2465;DHT22;1244;54.326;10.074;2022-11-14T07:18:56;7.80;99.90
2465;DHT22;1244;54.326;10.074;2022-11-14T07:21:22;7.80;99.90
2465;DHT22;1244;54.326;10.074;2022-11-14T07:23:48;7.90;99.90
2465;DHT22;1244;54.326;10.074;2022-11-14T07:26:14;7.90;99.90
2465;DHT22;1244;54.326;10.074;2022-11-14T07:28:42;7.80;99.90
2465;DHT22;1244;54.326;10.074;2022-11-14T07:31:09;7.90;99.90
2465;DHT22;1244;54.326;10.074;2022-11-14T07:33:37;7.90;99.90
2465;DHT22;1244;54.326;10.074;2022-11-14T07:36:03;7.90;99.90
2465;DHT22;1244;54.326;10.074;2022-11-14T07:38:30;8.00;99.90
2465;DHT22;1244;54.326;10.074;2022-11-14T07:40:58;7.90;99.90
2465;DHT22;1244;54.326;10.074;2022-11-14T07:43:24;8.00;99.90
2465;DHT22;1244;54.326;10.074;2022-11-14T07:45:49;8.00;99.90
2465;DHT22;1244;54.326;10.074;2022-11-14T07:48:15;8.00;99.90
2465;DHT22;1244;54.326;10.074;2022-11-14T07:50:41;8.00;99.90
2465;DHT22;1244;54.326;10.074;2022-11-14T07:53:07;7.90;99.90
2465;DHT22;1244;54.326;10.074;2022-11-14T07:55:34;8.00;99.90
2465;DHT22;1244;54.326;10.074;2022-11-14T07:58:00;7.90;99.90
2465;DHT22;1244;54.326;10.074;2022-11-14T08:00:26;7.90;99.90
2465;DHT22;1244;54.326;10.074;2022-11-14T08:02:51;8.00;99.90
2465;DHT22;1244;54.326;10.074;2022-11-14T08:05:17;7.90;99.90
2465;DHT22;1244;54.326;10.074;2022-11-14T08:07:43;7.90;99.90
2465;DHT22;1244;54.326;10.074;2022-11-14T08:10:09;7.90;99.90
2465;DHT22;1244;54.326;10.074;2022-11-14T08:12:37;7.90;99.90
2465;DHT22;1244;54.326;10.074;2022-11-14T08:15:05;7.90;99.90
2465;DHT22;1244;54.326;10.074;2022-11-14T08:17:31;7.90;99.90
2465;DHT22;1244;54.326;10.074;2022-11-14T08:19:56;7.90;99.90
2465;DHT22;1244;54.326;10.074;2022-11-14T08:22:22;8.00;99.90
2465;DHT22;1244;54.326;10.074;2022-11-14T08:24:47;8.00;99.90
2465;DHT22;1244;54.326;10.074;2022-11-14T08:27:13;7.80;99.90
2465;DHT22;1244;54.326;10.074;2022-11-14T08:29:38;7.80;99.90
2465;DHT22;1244;54.326;10.074;2022-11-14T08:32:04;7.80;99.90
2465;DHT22;1244;54.326;10.074;2022-11-14T08:34:29;7.80;99.90
2465;DHT22;1244;54.326;10.074;2022-11-14T08:36:55;7.90;99.90
2465;DHT22;1244;54.326;10.074;2022-11-14T08:39:22;7.90;99.90
2465;DHT22;1244;54.326;10.074;2022-11-14T08:41:47;7.80;99.90
2465;DHT22;1244;54.326;10.074;2022-11-14T08:44:13;7.80;99.90
2465;DHT22;1244;54.326;10.074;2022-11-14T08:46:38;7.90;99.90
2465;DHT22;1244;54.326;10.074;2022-11-14T08:49:04;7.90;99.90
2465;DHT22;1244;54.326;10.074;2022-11-14T08:51:29;7.80;99.90
2465;DHT22;1244;54.326;10.074;2022-11-14T08:53:55;7.90;99.90
2465;DHT22;1244;54.326;10.074;2022-11-14T08:56:21;7.90;99.90
2465;DHT22;1244;54.326;10.074;2022-11-14T08:58:47;7.90;99.90
2465;DHT22;1244;54.326;10.074;2022-11-14T09:01:12;7.90;99.90
2465;DHT22;1244;54.326;10.074;2022-11-14T09:03:38;7.90;99.90
2465;DHT22;1244;54.326;10.074;2022-11-14T09:06:03;7.90;99.90
2465;DHT22;1244;54.326;10.074;2022-11-14T09:08:29;7.90;99.90
2465;DHT22;1244;54.326;10.074;2022-11-14T09:10:59;8.00;99.90
2465;DHT22;1244;54.326;10.074;2022-11-14T09:13:24;8.00;99.90
2465;DHT22;1244;54.326;10.074;2022-11-14T09:15:51;7.90;99.90
2465;DHT22;1244;54.326;10.074;2022-11-14T09:18:17;7.90;99.90
2465;DHT22;1244;54.326;10.074;2022-11-14T09:20:43;7.90;99.90
2465;DHT22;1244;54.326;10.074;2022-11-14T09:23:09;7.80;99.90
2465;DHT22;1244;54.326;10.074;2022-11-14T09:25:35;7.70;99.90
2465;DHT22;1244;54.326;10.074;2022-11-14T09:28:05;7.80;99.90
2465;DHT22;1244;54.326;10.074;2022-11-14T09:30:32;7.80;99.90
2465;DHT22;1244;54.326;10.074;2022-11-14T09:32:59;7.80;99.90
2465;DHT22;1244;54.326;10.074;2022-11-14T09:35:26;7.80;99.90
2465;DHT22;1244;54.326;10.074;2022-11-14T09:37:59;7.90;99.90
2465;DHT22;1244;54.326;10.074;2022-11-14T09:40:25;7.90;99.90
2465;DHT22;1244;54.326;10.074;2022-11-14T09:43:12;8.00;99.90
2465;DHT22;1244;54.326;10.074;2022-11-14T09:45:45;8.00;99.90
2465;DHT22;1244;54.326;10.074;2022-11-14T09:48:17;8.00;99.90
2465;DHT22;1244;54.326;10.074;2022-11-14T09:50:47;8.10;99.90
2465;DHT22;1244;54.326;10.074;2022-11-14T09:53:31;8.10;99.90
2465;DHT22;1244;54.326;10.074;2022-11-14T09:55:58;7.90;99.90
2465;DHT22;1244;54.326;10.074;2022-11-14T09:58:25;7.90;99.90
2465;DHT22;1244;54.326;10.074;2022-11-14T10:00:59;7.90;99.90
2465;DHT22;1244;54.326;10.074;2022-11-14T10:03:42;8.00;99.90
2465;DHT22;1244;54.326;10.074;2022-11-14T10:14:14;7.80;99.90
2465;DHT22;1244;54.326;10.074;2022-11-14T10:19:40;7.80;99.90
2465;DHT22;1244;54.326;10.074;2022-11-14T10:30:14;7.60;99.90
2465;DHT22;1244;54.326;10.074;2022-11-14T10:33:06;7.60;99.90
2465;DHT22;1244;54.326;10.074;2022-11-14T10:35:44;7.50;99.90
2465;DHT22;1244;54.326;10.074;2022-11-14T10:38:17;7.60;99.90
2465;DHT22;1244;54.326;10.074;2022-11-14T10:40:47;7.50;99.90
2465;DHT22;1244;54.326;10.074;2022-11-14T10:43:42;7.60;99.90
2465;DHT22;1244;54.326;10.074;2022-11-14T10:46:21;7.50;99.90
2465;DHT22;1244;54.326;10.074;2022-11-14T10:48:49;7.50;99.90
2465;DHT22;1244;54.326;10.074;2022-11-14T10:56:33;7.60;99.90
2465;DHT22;1244;54.326;10.074;2022-11-14T10:58:59;7.60;99.90
2465;DHT22;1244;54.326;10.074;2022-11-14T11:01:42;7.70;99.90
2465;DHT22;1244;54.326;10.074;2022-11-14T11:06:40;7.70;99.90
2465;DHT22;1244;54.326;10.074;2022-11-14T11:09:13;7.60;99.90
2465;DHT22;1244;54.326;10.074;2022-11-14T11:11:59;7.60;99.90
2465;DHT22;1244;54.326;10.074;2022-11-14T11:14:26;7.80;99.90
2465;DHT22;1244;54.326;10.074;2022-11-14T11:19:38;7.80;99.90
2465;DHT22;1244;54.326;10.074;2022-11-14T11:22:08;7.80;99.90
2465;DHT22;1244;54.326;10.074;2022-11-14T11:24:47;7.80;99.90
2465;DHT22;1244;54.326;10.074;2022-11-14T11:27:25;7.80;99.90
2465;DHT22;1244;54.326;10.074;2022-11-14T11:30:07;7.80;99.90
2465;DHT22;1244;54.326;10.074;2022-11-14T11:32:33;7.80;99.90
2465;DHT22;1244;54.326;10.074;2022-11-14T11:35:01;7.80;99.90
2465;DHT22;1244;54.326;10.074;2022-11-14T11:37:55;7.80;99.90
2465;DHT22;1244;54.326;10.074;2022-11-14T11:40:23;7.80;99.90
2465;DHT22;1244;54.326;10.074;2022-11-14T11:43:00;7.90;99.90
2465;DHT22;1244;54.326;10.074;2022-11-14T11:45:29;7.90;99.90
2465;DHT22;1244;54.326;10.074;2022-11-14T11:48:00;8.00;99.90
2465;DHT22;1244;54.326;10.074;2022-11-14T11:50:29;8.20;99.90
2465;DHT22;1244;54.326;10.074;2022-11-14T11:53:06;8.10;99.90
2465;DHT22;1244;54.326;10.074;2022-11-14T11:55:42;8.20;99.90
2465;DHT22;1244;54.326;10.074;2022-11-14T12:00:34;8.10;99.90
2465;DHT22;1244;54.326;10.074;2022-11-14T12:02:59;8.10;99.90
2465;DHT22;1244;54.326;10.074;2022-11-14T12:05:46;8.10;99.90
2465;DHT22;1244;54.326;10.074;2022-11-14T12:11:03;8.10;99.90
2465;DHT22;1244;54.326;10.074;2022-11-14T12:13:41;8.20;99.90
2465;DHT22;1244;54.326;10.074;2022-11-14T12:22:00;8.20;99.90
2465;DHT22;1244;54.326;10.074;2022-11-14T12:24:52;8.30;99.90
2465;DHT22;1244;54.326;10.074;2022-11-14T12:30:22;8.40;99.90
2465;DHT22;1244;54.326;10.074;2022-11-14T12:32:56;8.50;99.90
2465;DHT22;1244;54.326;10.074;2022-11-14T12:35:29;8.50;99.90
2465;DHT22;1244;54.326;10.074;2022-11-14T12:37:56;8.50;99.90
2465;DHT22;1244;54.326;10.074;2022-11-14T12:40:32;8.50;99.90
2465;DHT22;1244;54.326;10.074;2022-11-14T12:42:59;8.50;99.90
2465;DHT22;1244;54.326;10.074;2022-11-14T12:50:41;9.30;99.90
2465;DHT22;1244;54.326;10.074;2022-11-14T13:01:30;11.90;99.90
2465;DHT22;1244;54.326;10.074;2022-11-14T13:04:19;12.10;99.90
2465;DHT22;1244;54.326;10.074;2022-11-14T13:10:10;12.90;99.90
2465;DHT22;1244;54.326;10.074;2022-11-14T13:12:37;13.20;99.90
2465;DHT22;1244;54.326;10.074;2022-11-14T13:15:32;13.10;99.90
2465;DHT22;1244;54.326;10.074;2022-11-14T13:21:03;12.70;99.90
2465;DHT22;1244;54.326;10.074;2022-11-14T13:28:49;13.20;99.90
2465;DHT22;1244;54.326;10.074;2022-11-14T13:33:59;13.50;99.90
2465;DHT22;1244;54.326;10.074;2022-11-14T13:36:57;13.20;99.90
2465;DHT22;1244;54.326;10.074;2022-11-14T13:39:34;13.20;99.90
2465;DHT22;1244;54.326;10.074;2022-11-14T13:43:12;12.90;99.90
2465;DHT22;1244;54.326;10.074;2022-11-14T13:45:47;13.50;99.90
2465;DHT22;1244;54.326;10.074;2022-11-14T13:48:21;14.00;99.90
2465;DHT22;1244;54.326;10.074;2022-11-14T13:50:54;14.20;99.90
2465;DHT22;1244;54.326;10.074;2022-11-14T13:53:22;14.40;99.90
2465;DHT22;1244;54.326;10.074;2022-11-14T14:07:48;13.20;99.90
2465;DHT22;1244;54.326;10.074;2022-11-14T14:10:25;13.10;99.90
2465;DHT22;1244;54.326;10.074;2022-11-14T14:16:09;13.10;99.90
2465;DHT22;1244;54.326;10.074;2022-11-14T14:29:17;11.60;99.90
2465;DHT22;1244;54.326;10.074;2022-11-14T14:31:47;10.70;99.90
2465;DHT22;1244;54.326;10.074;2022-11-14T14:34:24;10.40;99.90
2465;DHT22;1244;54.326;10.074;2022-11-14T14:36:54;10.00;99.90
2465;DHT22;1244;54.326;10.074;2022-11-14T14:39:22;9.80;99.90
2465;DHT22;1244;54.326;10.074;2022-11-14T14:41:50;9.60;99.90
2465;DHT22;1244;54.326;10.074;2022-11-14T14:44:38;9.50;99.90
2465;DHT22;1244;54.326;10.074;2022-11-14T14:47:32;9.60;99.90
2465;DHT22;1244;54.326;10.074;2022-11-14T14:50:04;9.40;99.90
2465;DHT22;1244;54.326;10.074;2022-11-14T14:52:33;9.30;99.90
2465;DHT22;1244;54.326;10.074;2022-11-14T14:55:00;9.30;99.90
2465;DHT22;1244;54.326;10.074;2022-11-14T14:57:28;9.00;99.90
2465;DHT22;1244;54.326;10.074;2022-11-14T15:00:33;9.00;99.90
2465;DHT22;1244;54.326;10.074;2022-11-14T15:02:54;8.90;99.90
2465;DHT22;1244;54.326;10.074;2022-11-14T15:05:22;8.90;99.90
2465;DHT22;1244;54.326;10.074;2022-11-14T15:07:49;9.00;99.90
2465;DHT22;1244;54.326;10.074;2022-11-14T15:10:21;8.90;99.90
2465;DHT22;1244;54.326;10.074;2022-11-14T15:12:47;8.90;99.90
2465;DHT22;1244;54.326;10.074;2022-11-14T15:15:14;8.80;99.90
2465;DHT22;1244;54.326;10.074;2022-11-14T15:17:40;8.60;99.90
2465;DHT22;1244;54.326;10.074;2022-11-14T15:20:20;8.60;99.90
2465;DHT22;1244;54.326;10.074;2022-11-14T15:23:16;8.50;99.90
2465;DHT22;1244;54.326;10.074;2022-11-14T15:25:43;8.50;99.90
2465;DHT22;1244;54.326;10.074;2022-11-14T15:28:14;8.50;99.90
2465;DHT22;1244;54.326;10.074;2022-11-14T15:30:40;8.50;99.90
2465;DHT22;1244;54.326;10.074;2022-11-14T15:33:29;8.30;99.90
2465;DHT22;1244;54.326;10.074;2022-11-14T15:36:10;8.30;99.90
2465;DHT22;1244;54.326;10.074;2022-11-14T15:38:36;8.40;99.90
2465;DHT22;1244;54.326;10.074;2022-11-14T15:48:54;8.00;99.90
2465;DHT22;1244;54.326;10.074;2022-11-14T15:51:49;7.90;99.90
2465;DHT22;1244;54.326;10.074;2022-11-14T15:54:31;7.80;99.90
2465;DHT22;1244;54.326;10.074;2022-11-14T15:57:04;7.80;99.90
2465;DHT22;1244;54.326;10.074;2022-11-14T15:59:30;7.80;99.90
2465;DHT22;1244;54.326;10.074;2022-11-14T16:02:13;7.80;99.90
2465;DHT22;1244;54.326;10.074;2022-11-14T16:04:40;7.80;99.90
2465;DHT22;1244;54.326;10.074;2022-11-14T16:07:05;7.70;99.90
2465;DHT22;1244;54.326;10.074;2022-11-14T16:09:31;7.60;99.90
2465;DHT22;1244;54.326;10.074;2022-11-14T16:11:56;7.60;99.90
2465;DHT22;1244;54.326;10.074;2022-11-14T16:14:22;7.50;99.90
2465;DHT22;1244;54.326;10.074;2022-11-14T16:16:47;7.50;99.90
2465;DHT22;1244;54.326;10.074;2022-11-14T16:19:14;7.40;99.90
2465;DHT22;1244;54.326;10.074;2022-11-14T16:21:40;7.40;99.90
2465;DHT22;1244;54.326;10.074;2022-11-14T16:24:13;7.30;99.90
2465;DHT22;1244;54.326;10.074;2022-11-14T16:26:39;7.30;99.90
2465;DHT22;1244;54.326;10.074;2022-11-14T16:29:05;7.40;99.90
2465;DHT22;1244;54.326;10.074;2022-11-14T16:31:32;7.30;99.90
2465;DHT22;1244;54.326;10.074;2022-11-14T16:33:57;7.40;99.90
2465;DHT22;1244;54.326;10.074;2022-11-14T16:36:23;7.30;99.90
2465;DHT22;1244;54.326;10.074;2022-11-14T16:38:48;7.30;99.90
2465;DHT22;1244;54.326;10.074;2022-11-14T16:41:14;7.20;99.90
2465;DHT22;1244;54.326;10.074;2022-11-14T16:43:40;7.30;99.90
2465;DHT22;1244;54.326;10.074;2022-11-14T16:46:06;7.30;99.90
2465;DHT22;1244;54.326;10.074;2022-11-14T16:48:32;7.20;99.90
2465;DHT22;1244;54.326;10.074;2022-11-14T16:51:02;7.00;99.90
2465;DHT22;1244;54.326;10.074;2022-11-14T16:53:27;7.10;99.90
2465;DHT22;1244;54.326;10.074;2022-11-14T16:55:53;6.90;99.90
2465;DHT22;1244;54.326;10.074;2022-11-14T16:58:19;6.80;99.90
2465;DHT22;1244;54.326;10.074;2022-11-14T17:00:44;6.80;99.90
2465;DHT22;1244;54.326;10.074;2022-11-14T17:03:10;6.80;99.90
2465;DHT22;1244;54.326;10.074;2022-11-14T17:05:43;6.90;99.90
2465;DHT22;1244;54.326;10.074;2022-11-14T17:08:08;6.90;99.90
2465;DHT22;1244;54.326;10.074;2022-11-14T17:10:42;6.90;99.90
2465;DHT22;1244;54.326;10.074;2022-11-14T17:13:08;6.80;99.90
2465;DHT22;1244;54.326;10.074;2022-11-14T17:15:34;6.80;99.90
2465;DHT22;1244;54.326;10.074;2022-11-14T17:18:00;6.90;99.90
2465;DHT22;1244;54.326;10.074;2022-11-14T17:20:25;6.80;99.90
2465;DHT22;1244;54.326;10.074;2022-11-14T17:22:51;6.80;99.90
2465;DHT22;1244;54.326;10.074;2022-11-14T17:25:16;6.90;99.90
2465;DHT22;1244;54.326;10.074;2022-11-14T17:27:42;6.90;99.90
2465;DHT22;1244;54.326;10.074;2022-11-14T17:30:10;6.80;99.90
2465;DHT22;1244;54.326;10.074;2022-11-14T17:32:36;6.70;99.90
2465;DHT22;1244;54.326;10.074;2022-11-14T17:35:01;6.70;99.90
2465;DHT22;1244;54.326;10.074;2022-11-14T17:37:27;6.60;99.90
2465;DHT22;1244;54.326;10.074;2022-11-14T17:39:52;6.60;99.90
2465;DHT22;1244;54.326;10.074;2022-11-14T17:42:18;6.60;99.90
2465;DHT22;1244;54.326;10.074;2022-11-14T17:44:43;6.50;99.90
2465;DHT22;1244;54.326;10.074;2022-11-14T17:47:09;6.50;99.90
2465;DHT22;1244;54.326;10.074;2022-11-14T17:49:34;6.40;99.90
2465;DHT22;1244;54.326;10.074;2022-11-14T17:52:00;6.50;99.90
2465;DHT22;1244;54.326;10.074;2022-11-14T17:54:25;6.40;99.90
2465;DHT22;1244;54.326;10.074;2022-11-14T17:56:51;6.30;99.90